sensor_id;sensor_type;location;lat;lon;timestamp;temperature;humidity
67005;HTU21D;53920;51.094;5.902;2023-05-10T00:01:38;15.01;82.65
67005;HTU21D;53920;51.094;5.902;2023-05-10T00:04:04;14.99;82.61
67005;HTU21D;53920;51.094;5.902;2023-05-10T00:06:30;14.97;82.67
67005;HTU21D;53920;51.094;5.902;2023-05-10T00:08:57;14.97;82.70
67005;HTU21D;53920;51.094;5.902;2023-05-10T00:11:23;14.96;82.64
67005;HTU21D;53920;51.094;5.902;2023-05-10T00:13:49;14.94;82.68
67005;HTU21D;53920;51.094;5.902;2023-05-10T00:16:15;14.91;82.79
67005;HTU21D;53920;51.094;5.902;2023-05-10T00:18:41;14.91;82.92
67005;HTU21D;53920;51.094;5.902;2023-05-10T00:21:07;14.89;82.87
67005;HTU21D;53920;51.094;5.902;2023-05-10T00:23:33;14.86;82.97
67005;HTU21D;53920;51.094;5.902;2023-05-10T00:25:59;14.82;83.04
67005;HTU21D;53920;51.094;5.902;2023-05-10T00:28:25;14.78;83.19
67005;HTU21D;53920;51.094;5.902;2023-05-10T00:30:52;14.73;83.35
67005;HTU21D;53920;51.094;5.902;2023-05-10T00:33:18;14.73;83.26
67005;HTU21D;53920;51.094;5.902;2023-05-10T00:35:44;14.66;83.49
67005;HTU21D;53920;51.094;5.902;2023-05-10T00:38:10;14.62;83.60
67005;HTU21D;53920;51.094;5.902;2023-05-10T00:40:36;14.56;83.81
67005;HTU21D;53920;51.094;5.902;2023-05-10T00:43:11;14.55;83.95
67005;HTU21D;53920;51.094;5.902;2023-05-10T00:45:40;14.57;83.90
67005;HTU21D;53920;51.094;5.902;2023-05-10T00:48:07;14.58;83.99
67005;HTU21D;53920;51.094;5.902;2023-05-10T00:50:33;14.59;83.98
67005;HTU21D;53920;51.094;5.902;2023-05-10T00:53:00;14.66;84.00
67005;HTU21D;53920;51.094;5.902;2023-05-10T00:55:27;14.66;83.92
67005;HTU21D;53920;51.094;5.902;2023-05-10T00:57:53;14.66;83.88
67005;HTU21D;53920;51.094;5.902;2023-05-10T01:00:20;14.67;83.89
67005;HTU21D;53920;51.094;5.902;2023-05-10T01:02:46;14.71;83.79
67005;HTU21D;53920;51.094;5.902;2023-05-10T01:05:12;14.71;83.81
67005;HTU21D;53920;51.094;5.902;2023-05-10T01:07:39;14.74;83.69
67005;HTU21D;53920;51.094;5.902;2023-05-10T01:10:06;14.81;83.56
67005;HTU21D;53920;51.094;5.902;2023-05-10T01:12:39;14.84;83.40
67005;HTU21D;53920;51.094;5.902;2023-05-10T01:15:08;14.87;83.24
67005;HTU21D;53920;51.094;5.902;2023-05-10T01:17:40;14.82;83.37
67005;HTU21D;53920;51.094;5.902;2023-05-10T01:20:09;14.79;83.48
67005;HTU21D;53920;51.094;5.902;2023-05-10T01:22:50;14.75;83.42
67005;HTU21D;53920;51.094;5.902;2023-05-10T01:28:14;14.73;83.56
67005;HTU21D;53920;51.094;5.902;2023-05-10T01:36:43;14.69;83.74
67005;HTU21D;53920;51.094;5.902;2023-05-10T01:39:32;14.69;83.74
67005;HTU21D;53920;51.094;5.902;2023-05-10T01:42:11;14.63;83.87
67005;HTU21D;53920;51.094;5.902;2023-05-10T01:45:41;14.65;83.87
67005;HTU21D;53920;51.094;5.902;2023-05-10T01:47:46;14.67;83.91
67005;HTU21D;53920;51.094;5.902;2023-05-10T01:50:25;14.64;83.97
67005;HTU21D;53920;51.094;5.902;2023-05-10T01:52:56;14.63;84.05
67005;HTU21D;53920;51.094;5.902;2023-05-10T01:55:26;14.63;84.18
67005;HTU21D;53920;51.094;5.902;2023-05-10T01:58:09;14.70;84.08
67005;HTU21D;53920;51.094;5.902;2023-05-10T02:00:43;14.70;83.86
67005;HTU21D;53920;51.094;5.902;2023-05-10T02:03:11;14.64;84.10
67005;HTU21D;53920;51.094;5.902;2023-05-10T02:05:40;14.69;84.09
67005;HTU21D;53920;51.094;5.902;2023-05-10T02:08:07;14.71;83.99
67005;HTU21D;53920;51.094;5.902;2023-05-10T02:10:37;14.72;84.00
67005;HTU21D;53920;51.094;5.902;2023-05-10T02:13:07;14.74;83.91
67005;HTU21D;53920;51.094;5.902;2023-05-10T02:15:35;14.75;83.81
67005;HTU21D;53920;51.094;5.902;2023-05-10T02:18:04;14.73;83.67
67005;HTU21D;53920;51.094;5.902;2023-05-10T02:20:32;14.75;83.63
67005;HTU21D;53920;51.094;5.902;2023-05-10T02:23:00;14.71;83.67
67005;HTU21D;53920;51.094;5.902;2023-05-10T02:25:29;14.71;83.66
67005;HTU21D;53920;51.094;5.902;2023-05-10T02:27:57;14.71;83.71
67005;HTU21D;53920;51.094;5.902;2023-05-10T02:30:27;14.70;83.49
67005;HTU21D;53920;51.094;5.902;2023-05-10T02:32:56;14.62;83.42
67005;HTU21D;53920;51.094;5.902;2023-05-10T02:35:25;14.56;83.58
67005;HTU21D;53920;51.094;5.902;2023-05-10T02:37:53;14.57;83.62
67005;HTU21D;53920;51.094;5.902;2023-05-10T02:40:22;14.53;83.67
67005;HTU21D;53920;51.094;5.902;2023-05-10T02:42:50;14.53;83.80
67005;HTU21D;53920;51.094;5.902;2023-05-10T02:45:23;14.55;83.74
67005;HTU21D;53920;51.094;5.902;2023-05-10T02:47:49;14.54;83.80
67005;HTU21D;53920;51.094;5.902;2023-05-10T02:50:16;14.55;83.62
67005;HTU21D;53920;51.094;5.902;2023-05-10T02:52:51;14.56;83.81
67005;HTU21D;53920;51.094;5.902;2023-05-10T02:55:25;14.60;83.68
67005;HTU21D;53920;51.094;5.902;2023-05-10T02:57:58;14.59;83.68
67005;HTU21D;53920;51.094;5.902;2023-05-10T03:00:25;14.56;83.47
67005;HTU21D;53920;51.094;5.902;2023-05-10T03:02:52;14.50;83.40
67005;HTU21D;53920;51.094;5.902;2023-05-10T03:05:20;14.45;83.45
67005;HTU21D;53920;51.094;5.902;2023-05-10T03:07:47;14.47;83.39
67005;HTU21D;53920;51.094;5.902;2023-05-10T03:10:13;14.45;83.38
67005;HTU21D;53920;51.094;5.902;2023-05-10T03:18:04;14.42;82.91
67005;HTU21D;53920;51.094;5.902;2023-05-10T03:20:36;14.42;82.71
67005;HTU21D;53920;51.094;5.902;2023-05-10T03:23:11;14.37;82.46
67005;HTU21D;53920;51.094;5.902;2023-05-10T03:25:41;14.33;82.46
67005;HTU21D;53920;51.094;5.902;2023-05-10T03:28:12;14.33;82.49
67005;HTU21D;53920;51.094;5.902;2023-05-10T03:30:42;14.35;82.56
67005;HTU21D;53920;51.094;5.902;2023-05-10T03:33:10;14.39;82.52
67005;HTU21D;53920;51.094;5.902;2023-05-10T03:35:40;14.44;82.18
67005;HTU21D;53920;51.094;5.902;2023-05-10T03:38:06;14.43;82.10
67005;HTU21D;53920;51.094;5.902;2023-05-10T03:40:32;14.42;81.92
67005;HTU21D;53920;51.094;5.902;2023-05-10T03:42:59;14.33;81.85
67005;HTU21D;53920;51.094;5.902;2023-05-10T03:45:26;14.33;81.94
67005;HTU21D;53920;51.094;5.902;2023-05-10T03:47:52;14.36;81.86
67005;HTU21D;53920;51.094;5.902;2023-05-10T03:50:18;14.39;81.78
67005;HTU21D;53920;51.094;5.902;2023-05-10T03:52:44;14.39;81.62
67005;HTU21D;53920;51.094;5.902;2023-05-10T03:55:10;14.39;81.49
67005;HTU21D;53920;51.094;5.902;2023-05-10T03:57:37;14.41;81.57
67005;HTU21D;53920;51.094;5.902;2023-05-10T04:00:04;14.45;81.54
67005;HTU21D;53920;51.094;5.902;2023-05-10T04:02:40;14.47;81.27
67005;HTU21D;53920;51.094;5.902;2023-05-10T04:05:08;14.43;81.20
67005;HTU21D;53920;51.094;5.902;2023-05-10T04:07:35;14.39;81.21
67005;HTU21D;53920;51.094;5.902;2023-05-10T04:10:02;14.38;81.23
67005;HTU21D;53920;51.094;5.902;2023-05-10T04:12:27;14.39;81.21
67005;HTU21D;53920;51.094;5.902;2023-05-10T04:14:53;14.38;81.21
67005;HTU21D;53920;51.094;5.902;2023-05-10T04:17:20;14.39;81.23
67005;HTU21D;53920;51.094;5.902;2023-05-10T04:19:45;14.40;81.27
67005;HTU21D;53920;51.094;5.902;2023-05-10T04:22:11;14.42;81.18
67005;HTU21D;53920;51.094;5.902;2023-05-10T04:24:37;14.44;81.14
67005;HTU21D;53920;51.094;5.902;2023-05-10T04:27:03;14.47;81.09
67005;HTU21D;53920;51.094;5.902;2023-05-10T04:29:29;14.47;81.13
67005;HTU21D;53920;51.094;5.902;2023-05-10T04:31:55;14.48;81.23
67005;HTU21D;53920;51.094;5.902;2023-05-10T04:34:22;14.50;81.17
67005;HTU21D;53920;51.094;5.902;2023-05-10T04:36:48;14.50;81.10
67005;HTU21D;53920;51.094;5.902;2023-05-10T04:39:14;14.52;80.98
67005;HTU21D;53920;51.094;5.902;2023-05-10T04:41:39;14.57;80.97
67005;HTU21D;53920;51.094;5.902;2023-05-10T04:44:05;14.63;80.71
67005;HTU21D;53920;51.094;5.902;2023-05-10T04:46:32;14.67;80.55
67005;HTU21D;53920;51.094;5.902;2023-05-10T04:48:58;14.67;80.56
67005;HTU21D;53920;51.094;5.902;2023-05-10T04:51:24;14.72;80.37
67005;HTU21D;53920;51.094;5.902;2023-05-10T04:53:51;14.71;80.24
67005;HTU21D;53920;51.094;5.902;2023-05-10T04:56:17;14.65;80.41
67005;HTU21D;53920;51.094;5.902;2023-05-10T04:58:42;14.66;80.56
67005;HTU21D;53920;51.094;5.902;2023-05-10T05:01:08;14.71;80.52
67005;HTU21D;53920;51.094;5.902;2023-05-10T05:03:36;14.73;80.44
67005;HTU21D;53920;51.094;5.902;2023-05-10T05:06:02;14.74;80.51
67005;HTU21D;53920;51.094;5.902;2023-05-10T05:08:28;14.79;80.36
67005;HTU21D;53920;51.094;5.902;2023-05-10T05:10:54;14.81;80.29
67005;HTU21D;53920;51.094;5.902;2023-05-10T05:13:20;14.85;80.22
67005;HTU21D;53920;51.094;5.902;2023-05-10T05:15:46;14.88;80.08
67005;HTU21D;53920;51.094;5.902;2023-05-10T05:18:12;14.91;80.06
67005;HTU21D;53920;51.094;5.902;2023-05-10T05:20:38;14.95;79.91
67005;HTU21D;53920;51.094;5.902;2023-05-10T05:23:04;14.93;79.73
67005;HTU21D;53920;51.094;5.902;2023-05-10T05:25:30;14.87;79.80
67005;HTU21D;53920;51.094;5.902;2023-05-10T05:27:56;14.85;79.91
67005;HTU21D;53920;51.094;5.902;2023-05-10T05:30:21;14.82;79.82
67005;HTU21D;53920;51.094;5.902;2023-05-10T05:32:48;14.80;79.88
67005;HTU21D;53920;51.094;5.902;2023-05-10T05:35:14;14.85;79.72
67005;HTU21D;53920;51.094;5.902;2023-05-10T05:37:40;14.84;79.64
67005;HTU21D;53920;51.094;5.902;2023-05-10T05:40:06;14.86;79.43
67005;HTU21D;53920;51.094;5.902;2023-05-10T05:42:32;14.88;79.45
67005;HTU21D;53920;51.094;5.902;2023-05-10T05:44:58;14.98;79.38
67005;HTU21D;53920;51.094;5.902;2023-05-10T05:47:24;15.04;79.12
67005;HTU21D;53920;51.094;5.902;2023-05-10T05:49:50;15.06;78.94
67005;HTU21D;53920;51.094;5.902;2023-05-10T05:52:16;15.04;78.81
67005;HTU21D;53920;51.094;5.902;2023-05-10T05:54:42;15.01;78.79
67005;HTU21D;53920;51.094;5.902;2023-05-10T05:57:08;15.02;78.82
67005;HTU21D;53920;51.094;5.902;2023-05-10T05:59:34;15.00;78.72
67005;HTU21D;53920;51.094;5.902;2023-05-10T06:02:00;15.01;78.73
67005;HTU21D;53920;51.094;5.902;2023-05-10T06:04:26;14.98;78.62
67005;HTU21D;53920;51.094;5.902;2023-05-10T06:06:52;14.99;78.66
67005;HTU21D;53920;51.094;5.902;2023-05-10T06:09:18;15.00;78.50
67005;HTU21D;53920;51.094;5.902;2023-05-10T06:11:44;15.02;78.39
67005;HTU21D;53920;51.094;5.902;2023-05-10T06:14:10;15.01;78.30
67005;HTU21D;53920;51.094;5.902;2023-05-10T06:16:35;15.06;78.06
67005;HTU21D;53920;51.094;5.902;2023-05-10T06:19:02;15.03;77.90
67005;HTU21D;53920;51.094;5.902;2023-05-10T06:21:28;15.09;77.83
67005;HTU21D;53920;51.094;5.902;2023-05-10T06:23:54;15.26;77.65
67005;HTU21D;53920;51.094;5.902;2023-05-10T06:26:20;15.44;77.09
67005;HTU21D;53920;51.094;5.902;2023-05-10T06:28:46;15.65;76.63
67005;HTU21D;53920;51.094;5.902;2023-05-10T06:31:12;15.86;76.00
67005;HTU21D;53920;51.094;5.902;2023-05-10T06:33:38;16.10;75.37
67005;HTU21D;53920;51.094;5.902;2023-05-10T06:36:04;16.32;74.84
67005;HTU21D;53920;51.094;5.902;2023-05-10T06:38:30;16.49;74.17
67005;HTU21D;53920;51.094;5.902;2023-05-10T06:40:56;16.67;73.80
67005;HTU21D;53920;51.094;5.902;2023-05-10T06:43:22;16.95;72.66
67005;HTU21D;53920;51.094;5.902;2023-05-10T06:45:48;17.36;71.62
67005;HTU21D;53920;51.094;5.902;2023-05-10T06:48:14;17.78;69.81
67005;HTU21D;53920;51.094;5.902;2023-05-10T06:50:41;18.25;68.28
67005;HTU21D;53920;51.094;5.902;2023-05-10T06:53:07;18.89;66.53
67005;HTU21D;53920;51.094;5.902;2023-05-10T06:55:33;19.51;63.97
67005;HTU21D;53920;51.094;5.902;2023-05-10T06:57:59;19.52;63.89
67005;HTU21D;53920;51.094;5.902;2023-05-10T07:00:25;19.33;64.03
67005;HTU21D;53920;51.094;5.902;2023-05-10T07:02:51;18.79;65.01
67005;HTU21D;53920;51.094;5.902;2023-05-10T07:05:18;18.26;66.11
67005;HTU21D;53920;51.094;5.902;2023-05-10T07:07:43;17.95;67.10
67005;HTU21D;53920;51.094;5.902;2023-05-10T07:10:09;17.75;67.36
67005;HTU21D;53920;51.094;5.902;2023-05-10T07:12:35;17.69;67.62
67005;HTU21D;53920;51.094;5.902;2023-05-10T07:15:01;17.89;67.60
67005;HTU21D;53920;51.094;5.902;2023-05-10T07:17:27;18.04;66.13
67005;HTU21D;53920;51.094;5.902;2023-05-10T07:19:53;17.89;65.62
67005;HTU21D;53920;51.094;5.902;2023-05-10T07:22:19;17.72;65.83
67005;HTU21D;53920;51.094;5.902;2023-05-10T07:24:45;17.44;65.89
67005;HTU21D;53920;51.094;5.902;2023-05-10T07:27:11;17.29;66.69
67005;HTU21D;53920;51.094;5.902;2023-05-10T07:29:38;17.21;66.98
67005;HTU21D;53920;51.094;5.902;2023-05-10T07:32:05;17.14;67.06
67005;HTU21D;53920;51.094;5.902;2023-05-10T07:34:31;16.95;67.68
67005;HTU21D;53920;51.094;5.902;2023-05-10T07:37:00;16.91;68.40
67005;HTU21D;53920;51.094;5.902;2023-05-10T07:39:27;16.85;69.06
67005;HTU21D;53920;51.094;5.902;2023-05-10T07:41:56;16.81;69.35
67005;HTU21D;53920;51.094;5.902;2023-05-10T07:44:23;16.82;69.49
67005;HTU21D;53920;51.094;5.902;2023-05-10T07:46:49;16.85;69.60
67005;HTU21D;53920;51.094;5.902;2023-05-10T07:49:15;16.89;69.74
67005;HTU21D;53920;51.094;5.902;2023-05-10T07:51:41;16.84;69.73
67005;HTU21D;53920;51.094;5.902;2023-05-10T07:54:07;16.80;70.00
67005;HTU21D;53920;51.094;5.902;2023-05-10T07:56:34;16.76;70.04
67005;HTU21D;53920;51.094;5.902;2023-05-10T07:59:02;16.64;70.20
67005;HTU21D;53920;51.094;5.902;2023-05-10T08:01:31;16.55;70.59
67005;HTU21D;53920;51.094;5.902;2023-05-10T08:03:58;16.51;70.74
67005;HTU21D;53920;51.094;5.902;2023-05-10T08:06:23;16.57;71.08
67005;HTU21D;53920;51.094;5.902;2023-05-10T08:08:51;16.51;71.20
67005;HTU21D;53920;51.094;5.902;2023-05-10T08:11:19;16.48;71.49
67005;HTU21D;53920;51.094;5.902;2023-05-10T08:13:47;16.42;71.65
67005;HTU21D;53920;51.094;5.902;2023-05-10T08:16:13;16.40;71.81
67005;HTU21D;53920;51.094;5.902;2023-05-10T08:18:39;16.30;71.54
67005;HTU21D;53920;51.094;5.902;2023-05-10T08:21:06;16.13;72.14
67005;HTU21D;53920;51.094;5.902;2023-05-10T08:23:33;16.11;72.38
67005;HTU21D;53920;51.094;5.902;2023-05-10T08:25:59;16.16;72.43
67005;HTU21D;53920;51.094;5.902;2023-05-10T08:28:25;16.15;72.32
67005;HTU21D;53920;51.094;5.902;2023-05-10T08:30:51;16.14;72.23
67005;HTU21D;53920;51.094;5.902;2023-05-10T08:33:18;16.11;72.36
67005;HTU21D;53920;51.094;5.902;2023-05-10T08:35:44;16.16;72.14
67005;HTU21D;53920;51.094;5.902;2023-05-10T08:38:10;16.17;72.05
67005;HTU21D;53920;51.094;5.902;2023-05-10T08:40:38;16.15;72.16
67005;HTU21D;53920;51.094;5.902;2023-05-10T08:43:07;16.08;72.28
67005;HTU21D;53920;51.094;5.902;2023-05-10T08:45:41;16.07;72.39
67005;HTU21D;53920;51.094;5.902;2023-05-10T08:48:09;16.03;72.58
67005;HTU21D;53920;51.094;5.902;2023-05-10T08:50:36;16.10;72.68
67005;HTU21D;53920;51.094;5.902;2023-05-10T08:53:09;16.19;72.10
67005;HTU21D;53920;51.094;5.902;2023-05-10T08:55:36;16.34;71.96
67005;HTU21D;53920;51.094;5.902;2023-05-10T08:58:08;16.54;71.48
67005;HTU21D;53920;51.094;5.902;2023-05-10T09:00:35;16.64;71.19
67005;HTU21D;53920;51.094;5.902;2023-05-10T09:03:02;16.77;70.90
67005;HTU21D;53920;51.094;5.902;2023-05-10T09:05:28;16.86;70.14
67005;HTU21D;53920;51.094;5.902;2023-05-10T09:07:54;17.03;69.78
67005;HTU21D;53920;51.094;5.902;2023-05-10T09:10:21;17.25;69.07
67005;HTU21D;53920;51.094;5.902;2023-05-10T09:12:48;17.43;68.49
67005;HTU21D;53920;51.094;5.902;2023-05-10T09:15:18;17.67;67.94
67005;HTU21D;53920;51.094;5.902;2023-05-10T09:17:47;18.05;66.91
67005;HTU21D;53920;51.094;5.902;2023-05-10T09:20:14;18.48;65.77
67005;HTU21D;53920;51.094;5.902;2023-05-10T09:22:40;18.73;64.69
67005;HTU21D;53920;51.094;5.902;2023-05-10T09:25:14;18.68;64.58
67005;HTU21D;53920;51.094;5.902;2023-05-10T09:27:44;18.62;64.50
67005;HTU21D;53920;51.094;5.902;2023-05-10T09:30:23;18.39;64.79
67005;HTU21D;53920;51.094;5.902;2023-05-10T09:32:50;18.30;65.46
67005;HTU21D;53920;51.094;5.902;2023-05-10T09:35:21;18.36;65.40
67005;HTU21D;53920;51.094;5.902;2023-05-10T09:37:50;18.48;64.92
67005;HTU21D;53920;51.094;5.902;2023-05-10T09:40:19;18.49;64.59
67005;HTU21D;53920;51.094;5.902;2023-05-10T09:42:57;18.52;64.15
67005;HTU21D;53920;51.094;5.902;2023-05-10T09:45:28;18.74;63.21
67005;HTU21D;53920;51.094;5.902;2023-05-10T09:47:54;18.78;62.76
67005;HTU21D;53920;51.094;5.902;2023-05-10T09:50:21;18.94;62.59
67005;HTU21D;53920;51.094;5.902;2023-05-10T09:52:53;18.96;62.85
67005;HTU21D;53920;51.094;5.902;2023-05-10T09:55:22;19.22;61.96
67005;HTU21D;53920;51.094;5.902;2023-05-10T09:57:49;19.60;60.76
67005;HTU21D;53920;51.094;5.902;2023-05-10T10:00:19;19.77;60.12
67005;HTU21D;53920;51.094;5.902;2023-05-10T10:02:59;19.80;59.80
67005;HTU21D;53920;51.094;5.902;2023-05-10T10:05:33;19.75;59.36
67005;HTU21D;53920;51.094;5.902;2023-05-10T10:08:03;19.59;60.06
67005;HTU21D;53920;51.094;5.902;2023-05-10T10:10:32;19.35;60.83
67005;HTU21D;53920;51.094;5.902;2023-05-10T10:12:58;19.08;61.80
67005;HTU21D;53920;51.094;5.902;2023-05-10T10:15:25;19.00;62.46
67005;HTU21D;53920;51.094;5.902;2023-05-10T10:17:53;18.79;63.08
67005;HTU21D;53920;51.094;5.902;2023-05-10T10:20:21;18.67;62.55
67005;HTU21D;53920;51.094;5.902;2023-05-10T10:22:48;18.55;62.82
67005;HTU21D;53920;51.094;5.902;2023-05-10T10:25:17;18.59;62.91
67005;HTU21D;53920;51.094;5.902;2023-05-10T10:30:43;18.92;62.98
67005;HTU21D;53920;51.094;5.902;2023-05-10T10:36:04;18.99;62.21
67005;HTU21D;53920;51.094;5.902;2023-05-10T10:41:31;18.88;62.43
67005;HTU21D;53920;51.094;5.902;2023-05-10T10:49:25;19.12;62.38
67005;HTU21D;53920;51.094;5.902;2023-05-10T10:54:39;19.85;60.68
67005;HTU21D;53920;51.094;5.902;2023-05-10T10:57:14;19.79;59.92
67005;HTU21D;53920;51.094;5.902;2023-05-10T10:59:44;19.70;60.12
67005;HTU21D;53920;51.094;5.902;2023-05-10T11:02:34;21.17;56.49
67005;HTU21D;53920;51.094;5.902;2023-05-10T11:08:00;22.47;51.77
67005;HTU21D;53920;51.094;5.902;2023-05-10T11:10:32;23.18;50.34
67005;HTU21D;53920;51.094;5.902;2023-05-10T11:13:05;23.72;48.78
67005;HTU21D;53920;51.094;5.902;2023-05-10T11:15:33;23.81;48.22
67005;HTU21D;53920;51.094;5.902;2023-05-10T11:18:19;23.21;49.93
67005;HTU21D;53920;51.094;5.902;2023-05-10T11:20:59;22.92;50.20
67005;HTU21D;53920;51.094;5.902;2023-05-10T11:26:12;23.21;48.75
67005;HTU21D;53920;51.094;5.902;2023-05-10T11:28:46;22.82;50.11
67005;HTU21D;53920;51.094;5.902;2023-05-10T11:31:17;23.13;49.28
67005;HTU21D;53920;51.094;5.902;2023-05-10T11:33:48;23.15;49.38
67005;HTU21D;53920;51.094;5.902;2023-05-10T11:36:16;22.73;49.47
67005;HTU21D;53920;51.094;5.902;2023-05-10T11:38:42;22.10;50.74
67005;HTU21D;53920;51.094;5.902;2023-05-10T11:41:09;21.79;51.56
67005;HTU21D;53920;51.094;5.902;2023-05-10T11:43:39;21.98;51.05
67005;HTU21D;53920;51.094;5.902;2023-05-10T11:46:11;22.61;49.96
67005;HTU21D;53920;51.094;5.902;2023-05-10T11:48:41;23.52;47.89
67005;HTU21D;53920;51.094;5.902;2023-05-10T11:51:09;23.91;46.76
67005;HTU21D;53920;51.094;5.902;2023-05-10T11:53:35;23.95;46.54
67005;HTU21D;53920;51.094;5.902;2023-05-10T11:56:09;23.50;47.31
67005;HTU21D;53920;51.094;5.902;2023-05-10T11:58:37;23.68;46.86
67005;HTU21D;53920;51.094;5.902;2023-05-10T12:01:06;24.79;45.09
67005;HTU21D;53920;51.094;5.902;2023-05-10T12:03:33;25.16;43.77
67005;HTU21D;53920;51.094;5.902;2023-05-10T12:06:02;25.43;42.40
67005;HTU21D;53920;51.094;5.902;2023-05-10T12:08:29;25.64;41.80
67005;HTU21D;53920;51.094;5.902;2023-05-10T12:11:08;26.36;39.71
67005;HTU21D;53920;51.094;5.902;2023-05-10T12:13:43;25.60;40.42
67005;HTU21D;53920;51.094;5.902;2023-05-10T12:16:24;25.04;42.04
67005;HTU21D;53920;51.094;5.902;2023-05-10T12:18:53;24.95;42.53
67005;HTU21D;53920;51.094;5.902;2023-05-10T12:21:20;24.19;43.09
67005;HTU21D;53920;51.094;5.902;2023-05-10T12:23:48;23.57;44.50
67005;HTU21D;53920;51.094;5.902;2023-05-10T12:26:15;24.04;44.16
67005;HTU21D;53920;51.094;5.902;2023-05-10T12:28:41;24.24;44.11
67005;HTU21D;53920;51.094;5.902;2023-05-10T12:31:07;24.31;43.37
67005;HTU21D;53920;51.094;5.902;2023-05-10T12:33:38;23.51;45.06
67005;HTU21D;53920;51.094;5.902;2023-05-10T12:36:05;23.42;45.93
67005;HTU21D;53920;51.094;5.902;2023-05-10T12:38:34;23.66;45.56
67005;HTU21D;53920;51.094;5.902;2023-05-10T12:41:03;23.81;45.65
67005;HTU21D;53920;51.094;5.902;2023-05-10T12:43:30;23.45;45.93
67005;HTU21D;53920;51.094;5.902;2023-05-10T12:45:56;23.28;46.16
67005;HTU21D;53920;51.094;5.902;2023-05-10T12:48:22;23.30;45.90
67005;HTU21D;53920;51.094;5.902;2023-05-10T12:50:48;23.00;46.59
67005;HTU21D;53920;51.094;5.902;2023-05-10T12:53:15;23.11;46.91
67005;HTU21D;53920;51.094;5.902;2023-05-10T12:55:42;23.07;46.89
67005;HTU21D;53920;51.094;5.902;2023-05-10T12:58:08;22.93;47.03
67005;HTU21D;53920;51.094;5.902;2023-05-10T13:00:34;22.77;46.84
67005;HTU21D;53920;51.094;5.902;2023-05-10T13:03:00;22.36;48.21
67005;HTU21D;53920;51.094;5.902;2023-05-10T13:05:26;22.29;48.71
67005;HTU21D;53920;51.094;5.902;2023-05-10T13:07:51;22.36;48.25
67005;HTU21D;53920;51.094;5.902;2023-05-10T13:10:17;22.56;48.08
67005;HTU21D;53920;51.094;5.902;2023-05-10T13:12:43;22.80;47.18
67005;HTU21D;53920;51.094;5.902;2023-05-10T13:15:09;23.64;45.19
67005;HTU21D;53920;51.094;5.902;2023-05-10T13:17:35;24.63;42.93
67005;HTU21D;53920;51.094;5.902;2023-05-10T13:20:01;25.27;41.51
67005;HTU21D;53920;51.094;5.902;2023-05-10T13:22:27;25.30;41.04
67005;HTU21D;53920;51.094;5.902;2023-05-10T13:24:53;24.66;42.45
67005;HTU21D;53920;51.094;5.902;2023-05-10T13:27:19;24.17;43.31
67005;HTU21D;53920;51.094;5.902;2023-05-10T13:29:45;23.66;44.06
67005;HTU21D;53920;51.094;5.902;2023-05-10T13:32:11;23.09;45.57
67005;HTU21D;53920;51.094;5.902;2023-05-10T13:34:36;22.66;47.05
67005;HTU21D;53920;51.094;5.902;2023-05-10T13:37:02;22.46;47.80
67005;HTU21D;53920;51.094;5.902;2023-05-10T13:39:28;22.25;48.33
67005;HTU21D;53920;51.094;5.902;2023-05-10T13:41:58;22.12;49.03
67005;HTU21D;53920;51.094;5.902;2023-05-10T13:44:24;21.98;49.18
67005;HTU21D;53920;51.094;5.902;2023-05-10T13:46:50;21.44;49.97
67005;HTU21D;53920;51.094;5.902;2023-05-10T13:49:16;21.20;51.45
67005;HTU21D;53920;51.094;5.902;2023-05-10T13:51:43;21.42;50.81
67005;HTU21D;53920;51.094;5.902;2023-05-10T13:54:09;21.33;50.52
67005;HTU21D;53920;51.094;5.902;2023-05-10T13:56:35;21.47;49.98
67005;HTU21D;53920;51.094;5.902;2023-05-10T13:59:01;21.54;49.63
67005;HTU21D;53920;51.094;5.902;2023-05-10T14:01:27;21.62;49.69
67005;HTU21D;53920;51.094;5.902;2023-05-10T14:03:53;21.58;49.65
67005;HTU21D;53920;51.094;5.902;2023-05-10T14:06:19;21.30;49.85
67005;HTU21D;53920;51.094;5.902;2023-05-10T14:08:47;21.13;50.33
67005;HTU21D;53920;51.094;5.902;2023-05-10T14:11:13;21.07;50.31
67005;HTU21D;53920;51.094;5.902;2023-05-10T14:13:39;20.91;51.05
67005;HTU21D;53920;51.094;5.902;2023-05-10T14:16:05;20.84;50.97
67005;HTU21D;53920;51.094;5.902;2023-05-10T14:18:31;20.70;51.23
67005;HTU21D;53920;51.094;5.902;2023-05-10T14:20:57;20.77;51.01
67005;HTU21D;53920;51.094;5.902;2023-05-10T14:23:23;20.79;51.46
67005;HTU21D;53920;51.094;5.902;2023-05-10T14:25:52;21.00;51.22
67005;HTU21D;53920;51.094;5.902;2023-05-10T14:28:18;21.02;50.75
67005;HTU21D;53920;51.094;5.902;2023-05-10T14:30:44;20.78;51.09
67005;HTU21D;53920;51.094;5.902;2023-05-10T14:33:10;20.57;51.76
67005;HTU21D;53920;51.094;5.902;2023-05-10T14:35:36;20.51;52.01
67005;HTU21D;53920;51.094;5.902;2023-05-10T14:38:03;20.91;51.43
67005;HTU21D;53920;51.094;5.902;2023-05-10T14:40:29;21.36;49.95
67005;HTU21D;53920;51.094;5.902;2023-05-10T14:42:55;21.72;49.69
67005;HTU21D;53920;51.094;5.902;2023-05-10T14:45:22;22.41;47.36
67005;HTU21D;53920;51.094;5.902;2023-05-10T14:47:49;22.52;46.86
67005;HTU21D;53920;51.094;5.902;2023-05-10T14:50:16;22.44;47.22
67005;HTU21D;53920;51.094;5.902;2023-05-10T14:52:44;22.22;46.93
67005;HTU21D;53920;51.094;5.902;2023-05-10T14:55:10;21.72;48.00
67005;HTU21D;53920;51.094;5.902;2023-05-10T14:57:36;21.52;48.53
67005;HTU21D;53920;51.094;5.902;2023-05-10T15:00:03;21.77;48.34
67005;HTU21D;53920;51.094;5.902;2023-05-10T15:02:31;21.96;48.03
67005;HTU21D;53920;51.094;5.902;2023-05-10T15:04:57;21.89;48.37
67005;HTU21D;53920;51.094;5.902;2023-05-10T15:07:23;21.54;48.74
67005;HTU21D;53920;51.094;5.902;2023-05-10T15:09:50;21.28;49.32
67005;HTU21D;53920;51.094;5.902;2023-05-10T15:12:18;21.25;49.83
67005;HTU21D;53920;51.094;5.902;2023-05-10T15:14:44;21.42;49.21
67005;HTU21D;53920;51.094;5.902;2023-05-10T15:17:10;21.63;49.13
67005;HTU21D;53920;51.094;5.902;2023-05-10T15:19:36;21.82;48.53
67005;HTU21D;53920;51.094;5.902;2023-05-10T15:22:04;21.91;47.48
67005;HTU21D;53920;51.094;5.902;2023-05-10T15:24:31;22.12;47.53
67005;HTU21D;53920;51.094;5.902;2023-05-10T15:26:57;22.40;46.99
67005;HTU21D;53920;51.094;5.902;2023-05-10T15:29:23;22.47;46.94
67005;HTU21D;53920;51.094;5.902;2023-05-10T15:31:50;22.31;47.31
67005;HTU21D;53920;51.094;5.902;2023-05-10T15:34:17;22.09;46.77
67005;HTU21D;53920;51.094;5.902;2023-05-10T15:36:44;21.96;47.44
67005;HTU21D;53920;51.094;5.902;2023-05-10T15:39:10;21.76;48.30
67005;HTU21D;53920;51.094;5.902;2023-05-10T15:41:37;21.63;48.31
67005;HTU21D;53920;51.094;5.902;2023-05-10T15:44:03;21.40;48.15
67005;HTU21D;53920;51.094;5.902;2023-05-10T15:46:31;21.38;48.12
67005;HTU21D;53920;51.094;5.902;2023-05-10T15:48:58;20.93;49.37
67005;HTU21D;53920;51.094;5.902;2023-05-10T15:51:24;20.42;51.21
67005;HTU21D;53920;51.094;5.902;2023-05-10T15:53:50;20.15;52.14
67005;HTU21D;53920;51.094;5.902;2023-05-10T15:56:16;19.94;53.14